Time;durP1;ratioP1;P1;durP2;ratioP2;P2;SDS_P1;SDS_P2;PMS_P1;PMS_P2;Temp;Humidity;BMP_temperature;BMP_pressure;BME280_temperature;BME280_humidity;BME280_pressure;Samples;Min_cycle;Max_cycle;Signal;HPM_P1;HPM_P2
2023/07/30 00:01:20;;;;;;;;;5.00;5.00;;;;;24.28;55.23;100032.05;110217;1264;18206;-36
2023/07/30 00:03:47;;;;;;;;;3.00;3.00;;;;;24.28;55.10;100029.48;110206;1259;21649;-36
2023/07/30 00:06:14;;;;;;;;;5.00;5.00;;;;;24.29;55.30;100026.95;110213;1259;19773;-36
2023/07/30 00:08:42;;;;;;;;;3.00;3.00;;;;;24.29;55.23;100030.29;110213;1264;19895;-37
2023/07/30 00:11:09;;;;;;;;;3.00;3.00;;;;;24.30;55.11;100032.67;110192;1265;21546;-36
2023/07/30 00:13:36;;;;;;;;;5.00;5.00;;;;;24.32;55.17;100029.60;110206;1250;20186;-36
2023/07/30 00:16:04;;;;;;;;;5.00;4.00;;;;;24.29;55.29;100029.20;110264;1257;19454;-36
2023/07/30 00:18:31;;;;;;;;;3.00;3.00;;;;;24.27;55.19;100027.36;110251;1265;18473;-36
2023/07/30 00:20:58;;;;;;;;;3.00;3.00;;;;;24.27;55.27;100023.91;110242;1250;20031;-36
2023/07/30 00:23:25;;;;;;;;;3.00;3.00;;;;;24.30;55.12;100026.33;110255;1250;21907;-36
2023/07/30 00:25:53;;;;;;;;;3.00;3.00;;;;;24.29;55.22;100027.81;110232;1250;19365;-35
2023/07/30 00:28:20;;;;;;;;;3.00;3.00;;;;;24.32;55.03;100025.29;110248;1249;19902;-36
2023/07/30 00:30:47;;;;;;;;;5.00;5.00;;;;;24.31;55.22;100026.80;110251;1264;19580;-37
2023/07/30 00:33:15;;;;;;;;;3.00;3.00;;;;;24.29;55.02;100025.85;110120;1265;19645;-35
2023/07/30 00:35:42;;;;;;;;;4.00;4.00;;;;;24.30;55.08;100024.47;110322;1250;20006;-35
2023/07/30 00:38:09;;;;;;;;;5.00;5.00;;;;;24.29;55.29;100025.52;110337;1251;19663;-35
2023/07/30 00:40:37;;;;;;;;;3.00;3.00;;;;;24.26;55.20;100027.71;110333;1264;18034;-34
2023/07/30 00:43:04;;;;;;;;;6.00;5.00;;;;;24.26;55.29;100032.15;110299;1250;20040;-34
2023/07/30 00:45:31;;;;;;;;;5.50;5.50;;;;;24.28;55.26;100035.40;110276;1250;18213;-34
2023/07/30 00:47:59;;;;;;;;;5.00;5.00;;;;;24.30;55.03;100043.63;110104;1265;17856;-36
2023/07/30 00:50:26;;;;;;;;;7.00;7.00;;;;;24.28;55.16;100046.34;110208;1257;21827;-36
2023/07/30 00:52:53;;;;;;;;;5.00;5.00;;;;;24.28;55.24;100048.77;110199;1249;21449;-36
2023/07/30 00:55:21;;;;;;;;;5.00;5.00;;;;;24.26;55.18;100049.83;110194;1250;22052;-36
2023/07/30 00:57:48;;;;;;;;;5.00;5.00;;;;;24.26;55.42;100047.59;110210;1250;19988;-36
2023/07/30 01:00:15;;;;;;;;;7.00;6.00;;;;;24.25;55.52;100045.85;110209;1250;21959;-36
2023/07/30 01:02:42;;;;;;;;;5.00;5.00;;;;;24.25;55.29;100048.69;110195;1265;17913;-36
2023/07/30 01:05:10;;;;;;;;;5.00;5.00;;;;;24.30;55.19;100051.60;110211;1265;21686;-36
2023/07/30 01:07:37;;;;;;;;;5.00;5.00;;;;;24.27;55.43;100054.30;110272;1250;19633;-36
2023/07/30 01:10:05;;;;;;;;;4.00;4.00;;;;;24.23;55.21;100047.30;110277;1250;21507;-36
2023/07/30 01:12:32;;;;;;;;;5.00;5.00;;;;;24.22;55.36;100047.72;110298;1249;21459;-36
2023/07/30 01:14:59;;;;;;;;;5.00;5.00;;;;;24.23;55.24;100058.80;110278;1265;21869;-36
2023/07/30 01:17:27;;;;;;;;;5.00;5.00;;;;;24.23;55.39;100059.90;110268;1265;18001;-36
2023/07/30 01:19:55;;;;;;;;;5.00;5.00;;;;;24.21;55.42;100060.60;110204;1250;22067;-36
2023/07/30 01:22:22;;;;;;;;;6.00;6.00;;;;;24.20;55.27;100059.30;110203;1250;19694;-36
2023/07/30 01:24:50;;;;;;;;;5.00;5.00;;;;;24.20;55.52;100062.23;110212;1250;19484;-36
2023/07/30 01:27:17;;;;;;;;;5.00;5.00;;;;;24.18;55.50;100062.59;110179;1250;20142;-36
2023/07/30 01:29:44;;;;;;;;;3.00;3.00;;;;;24.18;55.34;100062.91;110223;1265;18254;-35
2023/07/30 01:32:12;;;;;;;;;3.00;3.00;;;;;24.19;55.19;100065.19;110239;1265;17903;-36
2023/07/30 01:34:39;;;;;;;;;3.67;3.67;;;;;24.19;55.44;100068.54;110219;1249;18576;-36
2023/07/30 01:37:06;;;;;;;;;5.00;5.00;;;;;24.21;55.15;100071.21;110211;1256;18247;-36
2023/07/30 01:39:34;;;;;;;;;3.00;3.00;;;;;24.21;55.29;100070.05;110220;1259;19469;-36
2023/07/30 01:42:01;;;;;;;;;5.00;5.00;;;;;24.20;55.25;100065.84;110188;1250;20041;-35
2023/07/30 01:44:28;;;;;;;;;3.00;3.00;;;;;24.20;55.23;100071.14;110193;1264;22175;-35
2023/07/30 01:46:56;;;;;;;;;6.00;6.00;;;;;24.20;55.12;100076.23;110192;1258;19073;-36
2023/07/30 01:49:23;;;;;;;;;5.50;5.50;;;;;24.20;55.28;100079.13;110218;1250;19974;-36
2023/07/30 01:51:50;;;;;;;;;5.00;5.00;;;;;24.17;55.18;100081.27;110230;1249;18202;-37
2023/07/30 01:54:18;;;;;;;;;5.00;5.00;;;;;24.18;55.23;100076.45;110222;1264;18033;-35
2023/07/30 01:56:45;;;;;;;;;5.00;5.00;;;;;24.18;55.12;100078.64;110123;1265;18728;-35
2023/07/30 01:59:12;;;;;;;;;3.00;3.00;;;;;24.19;54.89;100080.09;110215;1250;21621;-35
2023/07/30 02:01:40;;;;;;;;;5.00;5.00;;;;;24.18;55.14;100082.02;110192;1264;17859;-35
2023/07/30 02:04:07;;;;;;;;;6.00;5.50;;;;;24.18;55.07;100079.49;110187;1249;21452;-35
2023/07/30 02:06:34;;;;;;;;;6.00;6.00;;;;;24.20;54.86;100085.15;110240;1250;20903;-36
2023/07/30 02:09:02;;;;;;;;;5.00;5.00;;;;;24.18;55.06;100088.27;110271;1250;19334;-35
2023/07/30 02:11:29;;;;;;;;;3.00;3.00;;;;;24.18;54.84;100085.75;110255;1258;19882;-36
2023/07/30 02:13:56;;;;;;;;;5.00;5.00;;;;;24.18;55.10;100083.49;110200;1265;19834;-36
2023/07/30 02:16:24;;;;;;;;;5.00;5.00;;;;;24.17;54.95;100083.84;110196;1265;19253;-36
2023/07/30 02:18:51;;;;;;;;;5.50;5.50;;;;;24.17;54.88;100086.70;110234;1265;18539;-35
2023/07/30 02:21:18;;;;;;;;;5.33;5.00;;;;;24.18;54.74;100088.68;110271;1250;19635;-35
2023/07/30 02:23:46;;;;;;;;;5.00;5.00;;;;;24.18;54.87;100082.89;110309;1250;19351;-36
2023/07/30 02:26:13;;;;;;;;;6.00;6.00;;;;;24.18;54.77;100078.09;110221;1249;20066;-37
2023/07/30 02:28:40;;;;;;;;;7.00;7.00;;;;;24.15;54.57;100081.86;110138;1250;19632;-35
2023/07/30 02:31:07;;;;;;;;;6.00;6.00;;;;;24.15;55.01;100083.89;110286;1250;19352;-36
2023/07/30 02:33:35;;;;;;;;;8.00;7.00;;;;;24.16;54.68;100085.41;110316;1250;20113;-36
2023/07/30 02:36:02;;;;;;;;;8.00;7.00;;;;;24.16;54.71;100092.08;110284;1265;22134;-36
2023/07/30 02:38:29;;;;;;;;;7.50;7.50;;;;;24.18;54.70;100086.67;110268;1250;19330;-36
2023/07/30 02:40:57;;;;;;;;;8.00;7.00;;;;;24.16;54.60;100088.36;110212;1265;18943;-36
2023/07/30 02:43:24;;;;;;;;;7.00;6.00;;;;;24.15;54.70;100090.58;110214;1265;19646;-36
2023/07/30 02:45:51;;;;;;;;;7.00;7.00;;;;;24.15;54.68;100093.97;110229;1256;17902;-36
2023/07/30 02:48:19;;;;;;;;;7.00;6.00;;;;;24.16;54.68;100098.21;110189;1264;19167;-35
2023/07/30 02:50:46;;;;;;;;;7.00;7.00;;;;;24.14;54.86;100100.02;110245;1250;19690;-35
2023/07/30 02:53:13;;;;;;;;;7.00;6.50;;;;;24.13;54.77;100099.48;110204;1265;19440;-36
2023/07/30 02:55:40;;;;;;;;;6.00;6.00;;;;;24.13;54.65;100099.38;110207;1249;21418;-36
2023/07/30 02:58:08;;;;;;;;;8.00;6.33;;;;;24.14;54.42;100103.67;110190;1249;20182;-36
2023/07/30 03:00:35;;;;;;;;;7.00;7.00;;;;;24.15;54.44;100098.79;110234;1259;19094;-36
2023/07/30 03:03:02;;;;;;;;;10.00;8.50;;;;;24.14;54.59;100102.58;110202;1250;20017;-36
2023/07/30 03:05:30;;;;;;;;;6.00;6.00;;;;;24.11;54.62;100099.08;110193;1250;19665;-35
2023/07/30 03:07:57;;;;;;;;;6.00;6.00;;;;;24.13;54.81;100099.99;110217;1249;19374;-35
2023/07/30 03:10:25;;;;;;;;;6.00;6.00;;;;;24.13;54.63;100099.04;110199;1250;20002;-35
2023/07/30 03:12:52;;;;;;;;;7.00;6.00;;;;;24.12;54.37;100100.60;110091;1250;19716;-37
2023/07/30 03:15:19;;;;;;;;;8.00;7.00;;;;;24.12;54.52;100098.19;110165;1265;19291;-35
2023/07/30 03:17:46;;;;;;;;;7.00;6.00;;;;;24.12;54.53;100097.96;110254;1250;21997;-35
2023/07/30 03:20:14;;;;;;;;;6.50;6.00;;;;;24.12;54.68;100094.03;110273;1250;19669;-35
2023/07/30 03:22:41;;;;;;;;;7.00;7.00;;;;;24.11;54.39;100091.42;110265;1265;19541;-36
2023/07/30 03:25:08;;;;;;;;;7.50;6.50;;;;;24.14;54.24;100090.92;110229;1265;19218;-36
2023/07/30 03:27:36;;;;;;;;;6.50;6.00;;;;;24.12;54.38;100090.69;110178;1265;19749;-36
2023/07/30 03:30:04;;;;;;;;;6.00;6.00;;;;;24.12;54.50;100090.69;110237;1265;19254;-36
2023/07/30 03:32:31;;;;;;;;;7.00;6.50;;;;;24.12;54.29;100087.91;110219;1265;18557;-36
2023/07/30 03:34:59;;;;;;;;;6.00;6.00;;;;;24.12;54.36;100088.34;110168;1266;21985;-36
2023/07/30 03:37:26;;;;;;;;;7.00;7.00;;;;;24.13;54.29;100090.28;110218;1249;19344;-36
2023/07/30 03:39:53;;;;;;;;;7.00;6.00;;;;;24.12;54.33;100092.77;110219;1250;18680;-36
2023/07/30 03:42:21;;;;;;;;;7.00;7.00;;;;;24.11;54.21;100097.56;110261;1250;19687;-35
2023/07/30 03:44:48;;;;;;;;;10.33;9.00;;;;;24.11;54.48;100103.91;110298;1250;19313;-35
2023/07/30 03:47:15;;;;;;;;;8.00;7.00;;;;;24.12;54.27;100112.58;110284;1265;18434;-35
2023/07/30 03:49:43;;;;;;;;;6.50;6.00;;;;;24.11;54.33;100112.50;110245;1249;21632;-35
2023/07/30 03:52:10;;;;;;;;;7.50;7.00;;;;;24.11;54.36;100108.35;110221;1250;19387;-35
2023/07/30 03:54:37;;;;;;;;;8.00;8.00;;;;;24.09;54.34;100106.85;110183;1265;22733;-35
2023/07/30 03:57:04;;;;;;;;;7.50;6.00;;;;;24.09;54.28;100105.05;110212;1250;19573;-36
2023/07/30 03:59:32;;;;;;;;;11.00;8.00;;;;;24.10;54.37;100102.58;110172;1250;20066;-36
2023/07/30 04:01:59;;;;;;;;;7.00;7.00;;;;;24.10;54.17;100098.13;110254;1250;19921;-36
2023/07/30 04:04:26;;;;;;;;;6.00;6.00;;;;;24.11;54.32;100099.10;110211;1265;21412;-36
2023/07/30 04:06:54;;;;;;;;;8.33;7.00;;;;;24.12;54.40;100101.75;110175;1250;19302;-36
2023/07/30 04:09:21;;;;;;;;;8.00;7.00;;;;;24.11;54.26;100102.48;110203;1256;22935;-35
2023/07/30 04:11:49;;;;;;;;;7.00;7.00;;;;;24.11;54.14;100110.57;110178;1265;19545;-35
2023/07/30 04:14:16;;;;;;;;;6.00;6.00;;;;;24.11;54.18;100115.50;110258;1250;22618;-35
2023/07/30 04:16:46;;;;;;;;;6.00;6.00;;;;;24.11;54.05;100122.80;110230;1258;20204;-35
2023/07/30 04:19:14;;;;;;;;;7.00;7.00;;;;;24.12;54.16;100124.23;110263;1259;19513;-35
2023/07/30 04:21:41;;;;;;;;;9.00;7.00;;;;;24.11;54.29;100125.35;110211;1250;19384;-35
2023/07/30 04:24:08;;;;;;;;;7.00;6.33;;;;;24.12;54.40;100119.98;110207;1250;20017;-36
2023/07/30 04:26:36;;;;;;;;;7.00;7.00;;;;;24.12;54.25;100118.39;110277;1256;20054;-37
2023/07/30 04:29:03;;;;;;;;;6.00;5.00;;;;;24.11;54.25;100122.02;110244;1250;19325;-35
2023/07/30 04:31:32;;;;;;;;;7.00;6.00;;;;;24.10;54.36;100124.56;110243;1250;18825;-36
2023/07/30 04:33:59;;;;;;;;;8.50;8.50;;;;;24.10;54.33;100125.21;110264;1250;19673;-36
2023/07/30 04:36:27;;;;;;;;;10.50;10.00;;;;;24.11;54.40;100127.44;110301;1250;19322;-35
2023/07/30 04:38:54;;;;;;;;;8.00;7.00;;;;;24.11;54.57;100132.20;110269;1265;18598;-37
2023/07/30 04:41:21;;;;;;;;;8.00;7.00;;;;;24.11;54.58;100137.67;110245;1260;18599;-36
2023/07/30 04:43:48;;;;;;;;;10.00;8.33;;;;;24.11;54.55;100137.45;110210;1265;21662;-36
2023/07/30 04:46:16;;;;;;;;;10.00;8.00;;;;;24.09;54.69;100142.64;110195;1265;19044;-37
2023/07/30 04:48:43;;;;;;;;;10.00;10.00;;;;;24.08;54.86;100147.85;110266;1249;23166;-35
2023/07/30 04:51:10;;;;;;;;;11.00;10.00;;;;;24.10;54.95;100148.86;110306;1251;19533;-35
2023/07/30 04:53:38;;;;;;;;;11.00;10.00;;;;;24.10;54.77;100144.27;110262;1265;21912;-35
2023/07/30 04:56:05;;;;;;;;;14.00;12.00;;;;;24.11;54.80;100144.14;110253;1249;20010;-36
2023/07/30 04:58:32;;;;;;;;;12.00;11.00;;;;;24.09;55.03;100143.30;110230;1257;22980;-36
2023/07/30 05:01:00;;;;;;;;;8.00;8.00;;;;;24.09;54.96;100142.41;110211;1251;19911;-36
2023/07/30 05:03:27;;;;;;;;;12.50;10.00;;;;;24.10;54.83;100146.13;110214;1250;21059;-36
2023/07/30 05:05:54;;;;;;;;;11.00;10.00;;;;;24.10;54.98;100150.12;110200;1249;20542;-35
2023/07/30 05:08:22;;;;;;;;;10.00;10.00;;;;;24.07;55.10;100153.24;110173;1250;21045;-35
2023/07/30 05:10:49;;;;;;;;;12.00;11.00;;;;;24.08;55.32;100158.31;110170;1249;22007;-35
2023/07/30 05:13:17;;;;;;;;;12.00;12.00;;;;;24.07;55.58;100158.08;110162;1259;19435;-35
2023/07/30 05:15:44;;;;;;;;;19.00;16.00;;;;;23.90;56.18;100161.81;110211;1250;19974;-36
2023/07/30 05:18:13;;;;;;;;;15.00;14.00;;;;;23.56;57.60;100167.90;110197;1250;20037;-36
2023/07/30 05:20:40;;;;;;;;;14.00;12.00;;;;;23.49;58.16;100164.23;110209;1265;19499;-36
2023/07/30 05:23:07;;;;;;;;;15.00;14.00;;;;;23.47;58.36;100163.67;110219;1265;18674;-36
2023/07/30 05:25:35;;;;;;;;;14.00;14.00;;;;;23.45;58.46;100165.64;110191;1250;21690;-36
2023/07/30 05:28:02;;;;;;;;;14.00;14.00;;;;;23.46;58.45;100167.67;110195;1250;19563;-35
2023/07/30 05:30:30;;;;;;;;;15.00;15.00;;;;;23.26;59.39;100163.09;110201;1251;19989;-35
2023/07/30 05:32:57;;;;;;;;;13.67;13.33;;;;;23.33;59.17;100164.29;110168;1265;19014;-36
2023/07/30 05:35:24;;;;;;;;;15.00;13.00;;;;;23.36;59.26;100164.49;110176;1250;21584;-35
2023/07/30 05:37:52;;;;;;;;;14.00;13.00;;;;;23.23;59.95;100165.65;110218;1250;19964;-36
2023/07/30 05:40:19;;;;;;;;;15.00;14.00;;;;;23.34;59.39;100169.29;110225;1250;20029;-35
2023/07/30 05:42:46;;;;;;;;;11.67;10.00;;;;;23.58;58.89;100170.05;110205;1250;21808;-35
2023/07/30 05:45:13;;;;;;;;;21.50;17.00;;;;;23.79;58.11;100167.14;110163;1265;18554;-35
2023/07/30 05:47:41;;;;;;;;;21.50;19.00;;;;;23.79;58.18;100168.23;110138;1250;20133;-35
2023/07/30 05:50:08;;;;;;;;;18.33;15.67;;;;;23.79;58.35;100170.68;110136;1250;21801;-40
2023/07/30 05:52:35;;;;;;;;;19.00;15.00;;;;;23.79;58.29;100173.58;110054;1250;18580;-37
2023/07/30 05:55:03;;;;;;;;;18.00;16.00;;;;;23.75;58.54;100171.48;110140;1265;18631;-37
2023/07/30 05:57:30;;;;;;;;;18.00;14.50;;;;;23.73;58.81;100170.04;110164;1250;19547;-37
2023/07/30 05:59:57;;;;;;;;;22.00;19.00;;;;;23.75;58.81;100173.77;110121;1250;22540;-37
2023/07/30 06:02:25;;;;;;;;;30.00;25.33;;;;;23.69;59.18;100173.52;110132;1250;19994;-35
2023/07/30 06:04:52;;;;;;;;;27.00;23.00;;;;;23.65;59.54;100173.21;110159;1265;18186;-36
2023/07/30 06:07:19;;;;;;;;;27.00;24.00;;;;;23.64;59.45;100174.16;110172;1250;19989;-36
2023/07/30 06:09:46;;;;;;;;;26.33;22.67;;;;;23.62;59.61;100177.42;110250;1250;20042;-35
2023/07/30 06:12:14;;;;;;;;;23.00;22.00;;;;;23.59;59.81;100181.31;110234;1250;19510;-36
2023/07/30 06:14:41;;;;;;;;;22.50;21.00;;;;;23.54;60.25;100178.93;110177;1250;23203;-36
2023/07/30 06:17:08;;;;;;;;;22.50;19.00;;;;;23.53;60.34;100182.61;110154;1264;18777;-35
2023/07/30 06:19:36;;;;;;;;;19.00;18.00;;;;;23.56;60.50;100184.25;110201;1250;21944;-35
2023/07/30 06:22:03;;;;;;;;;21.00;18.00;;;;;23.53;61.03;100181.95;110269;1249;20087;-35
2023/07/30 06:24:30;;;;;;;;;20.00;15.00;;;;;23.46;61.12;100182.73;110233;1250;21611;-35
2023/07/30 06:26:58;;;;;;;;;18.00;17.00;;;;;23.45;61.31;100180.45;110263;1250;19584;-35
2023/07/30 06:29:25;;;;;;;;;15.00;14.00;;;;;23.49;61.27;100183.98;110223;1258;19793;-36
2023/07/30 06:31:52;;;;;;;;;17.00;14.00;;;;;23.48;61.12;100185.09;110223;1250;20055;-36
2023/07/30 06:34:19;;;;;;;;;18.00;15.50;;;;;23.46;61.20;100179.98;110230;1265;21422;-36
2023/07/30 06:36:47;;;;;;;;;21.00;18.00;;;;;23.43;61.38;100179.83;110264;1265;18591;-36
2023/07/30 06:39:14;;;;;;;;;14.33;14.00;;;;;23.44;61.20;100176.52;110258;1250;20830;-36
2023/07/30 06:41:42;;;;;;;;;19.00;17.00;;;;;23.45;61.21;100177.05;110211;1259;19538;-36
2023/07/30 06:44:10;;;;;;;;;22.00;19.00;;;;;23.51;61.32;100175.67;110212;1264;18549;-36
2023/07/30 06:46:37;;;;;;;;;21.00;18.00;;;;;23.54;61.02;100179.41;110142;1250;19994;-35
2023/07/30 06:49:04;;;;;;;;;22.00;21.00;;;;;23.56;61.43;100179.60;110165;1259;21420;-36
2023/07/30 06:51:32;;;;;;;;;20.33;18.33;;;;;23.57;61.40;100179.70;110206;1250;18867;-36
2023/07/30 06:53:59;;;;;;;;;23.00;19.00;;;;;23.57;61.67;100179.54;110220;1250;20104;-35
2023/07/30 06:56:27;;;;;;;;;19.00;15.00;;;;;23.61;61.37;100187.02;110200;1259;19807;-36
2023/07/30 06:58:54;;;;;;;;;19.50;17.50;;;;;23.59;61.30;100187.04;110212;1250;19973;-36
2023/07/30 07:01:21;;;;;;;;;17.00;16.00;;;;;23.59;61.16;100186.45;110225;1259;19862;-36
2023/07/30 07:03:49;;;;;;;;;15.00;14.00;;;;;23.59;61.43;100177.48;109905;1265;380632;-37
2023/07/30 07:06:16;;;;;;;;;17.00;15.00;;;;;23.67;61.10;100180.12;110186;1250;21225;-36
2023/07/30 07:08:43;;;;;;;;;18.00;17.00;;;;;23.71;60.87;100186.15;110187;1265;18536;-36
2023/07/30 07:11:10;;;;;;;;;22.00;19.00;;;;;23.72;61.15;100187.30;110227;1250;18113;-35
2023/07/30 07:13:38;;;;;;;;;18.00;14.00;;;;;23.67;61.24;100187.62;110226;1264;18594;-35
2023/07/30 07:16:05;;;;;;;;;17.00;15.00;;;;;23.63;61.20;100188.40;110222;1265;18614;-36
2023/07/30 07:18:32;;;;;;;;;15.00;14.00;;;;;23.67;61.00;100185.98;110197;1251;19495;-35
2023/07/30 07:21:00;;;;;;;;;14.50;14.00;;;;;23.73;60.80;100179.77;110195;1264;21624;-35
2023/07/30 07:23:27;;;;;;;;;17.50;16.00;;;;;23.75;60.87;100184.98;110175;1250;20091;-37
2023/07/30 07:25:54;;;;;;;;;17.33;15.00;;;;;23.75;60.89;100188.27;110240;1265;18102;-37
2023/07/30 07:28:22;;;;;;;;;16.00;15.00;;;;;23.78;60.70;100192.36;110200;1250;19935;-37
2023/07/30 07:30:49;;;;;;;;;18.00;16.00;;;;;23.79;60.63;100191.36;110194;1249;20061;-37
2023/07/30 07:33:16;;;;;;;;;17.67;15.67;;;;;23.81;60.69;100192.48;110175;1265;19477;-36
2023/07/30 07:35:44;;;;;;;;;42.50;37.00;;;;;23.83;60.46;100194.06;110198;1265;22166;-37
2023/07/30 07:38:11;;;;;;;;;28.00;26.00;;;;;23.86;60.60;100198.76;110165;1250;20079;-36
2023/07/30 07:40:40;;;;;;;;;58.50;42.50;;;;;23.86;60.52;100195.09;110196;1265;18135;-42
2023/07/30 07:43:07;;;;;;;;;60.50;43.50;;;;;23.88;60.65;100196.98;110221;1249;18607;-36
2023/07/30 07:45:34;;;;;;;;;62.50;46.50;;;;;23.85;60.74;100196.42;110183;1265;19993;-36
2023/07/30 07:48:02;;;;;;;;;58.00;45.67;;;;;23.92;60.31;100195.58;110206;1265;18153;-38
2023/07/30 07:50:29;;;;;;;;;63.00;48.50;;;;;23.85;60.40;100195.27;110197;1250;20214;-36
2023/07/30 07:52:56;;;;;;;;;71.00;53.00;;;;;23.92;59.80;100199.75;110196;1265;20271;-37
2023/07/30 07:55:24;;;;;;;;;78.50;55.50;;;;;23.96;59.38;100197.48;110220;1265;22035;-37
2023/07/30 07:57:51;;;;;;;;;80.00;57.00;;;;;23.94;59.34;100197.52;110242;1250;18578;-37
2023/07/30 08:00:19;;;;;;;;;77.50;57.00;;;;;23.96;59.15;100200.86;110210;1265;20235;-37
2023/07/30 08:02:46;;;;;;;;;70.50;51.00;;;;;23.95;58.92;100200.40;110181;1259;19455;-37
2023/07/30 08:05:14;;;;;;;;;57.00;42.00;;;;;23.96;59.13;100199.83;110191;1265;20006;-36
2023/07/30 08:07:41;;;;;;;;;34.00;32.00;;;;;24.02;58.56;100198.77;110169;1265;21963;-36
2023/07/30 08:10:08;;;;;;;;;32.50;28.00;;;;;24.06;58.56;100203.84;110244;1265;22609;-37
2023/07/30 08:12:36;;;;;;;;;25.67;23.00;;;;;24.03;58.53;100205.25;110085;1265;22101;-37
2023/07/30 08:15:03;;;;;;;;;18.67;17.33;;;;;24.06;58.21;100202.62;110243;1249;20000;-34
2023/07/30 08:17:30;;;;;;;;;20.00;19.00;;;;;24.03;58.32;100207.99;110208;1250;19554;-37
2023/07/30 08:19:58;;;;;;;;;22.00;22.00;;;;;24.01;58.08;100207.48;110194;1250;21938;-37
2023/07/30 08:22:25;;;;;;;;;19.00;16.00;;;;;23.96;58.60;100211.98;110203;1250;20070;-37
2023/07/30 08:24:52;;;;;;;;;16.00;16.00;;;;;24.03;58.44;100209.37;110229;1250;19403;-37
2023/07/30 08:27:20;;;;;;;;;17.00;15.50;;;;;24.04;58.44;100211.09;110199;1250;20051;-36
2023/07/30 08:29:47;;;;;;;;;16.00;15.33;;;;;24.08;58.28;100211.06;110201;1251;21776;-37
2023/07/30 08:32:14;;;;;;;;;20.50;16.50;;;;;24.09;58.11;100211.05;110201;1250;19887;-37
2023/07/30 08:34:42;;;;;;;;;18.00;16.00;;;;;24.10;58.25;100212.73;110194;1265;19503;-37
2023/07/30 08:37:09;;;;;;;;;15.00;14.67;;;;;24.12;57.92;100216.45;110179;1265;18600;-37
2023/07/30 08:39:36;;;;;;;;;16.00;16.00;;;;;24.13;58.13;100217.27;110208;1249;20695;-36
2023/07/30 08:42:04;;;;;;;;;17.00;15.50;;;;;24.07;58.45;100220.49;110214;1250;19815;-35
2023/07/30 08:44:31;;;;;;;;;16.00;15.00;;;;;24.12;58.64;100218.97;110275;1250;22018;-35
2023/07/30 08:46:58;;;;;;;;;16.00;16.00;;;;;24.15;58.27;100220.51;110301;1249;18132;-35
2023/07/30 08:49:28;;;;;;;;;15.00;15.00;;;;;24.16;58.24;100219.76;110263;1265;19229;-35
2023/07/30 08:51:55;;;;;;;;;19.00;16.00;;;;;24.22;58.08;100215.09;110278;1250;20233;-36
2023/07/30 08:54:22;;;;;;;;;16.00;15.00;;;;;24.27;58.02;100212.88;110242;1264;22108;-36
2023/07/30 08:56:50;;;;;;;;;19.00;17.00;;;;;24.34;57.89;100215.64;110209;1265;18801;-37
2023/07/30 08:59:17;;;;;;;;;20.50;19.50;;;;;24.29;57.66;100213.34;110182;1250;20050;-37
2023/07/30 09:01:44;;;;;;;;;19.00;17.50;;;;;24.36;57.70;100216.36;110216;1250;19504;-36
2023/07/30 09:04:12;;;;;;;;;17.33;16.67;;;;;24.40;57.30;100218.67;110285;1250;20010;-37
2023/07/30 09:06:39;;;;;;;;;17.00;16.00;;;;;24.42;56.85;100212.35;110247;1265;18580;-37
2023/07/30 09:09:06;;;;;;;;;16.50;15.50;;;;;24.39;56.65;100214.81;110213;1250;19507;-37
2023/07/30 09:11:34;;;;;;;;;14.00;12.00;;;;;24.41;56.79;100219.48;110202;1250;20064;-37
2023/07/30 09:14:01;;;;;;;;;14.00;14.00;;;;;24.45;56.87;100216.05;110191;1250;20930;-37
2023/07/30 09:16:29;;;;;;;;;13.00;13.00;;;;;24.47;56.80;100215.72;110214;1250;19594;-37
2023/07/30 09:18:56;;;;;;;;;15.00;15.00;;;;;24.42;56.94;100222.52;110209;1250;20017;-37
2023/07/30 09:21:23;;;;;;;;;15.00;14.67;;;;;24.40;56.70;100221.95;110169;1250;20013;-36
2023/07/30 09:23:50;;;;;;;;;16.00;16.00;;;;;24.38;56.16;100221.75;110162;1264;18086;-36
2023/07/30 09:26:18;;;;;;;;;17.00;17.00;;;;;24.31;56.27;100225.61;110159;1250;19990;-38
2023/07/30 09:28:45;;;;;;;;;12.00;12.00;;;;;24.31;56.01;100228.85;110231;1264;18620;-36
2023/07/30 09:31:12;;;;;;;;;15.00;14.00;;;;;24.33;56.07;100229.20;110200;1256;19050;-36
2023/07/30 09:33:40;;;;;;;;;15.00;14.00;;;;;24.39;55.52;100228.35;110197;1264;18546;-36
2023/07/30 09:36:07;;;;;;;;;16.00;15.00;;;;;24.34;55.95;100228.23;110260;1250;20094;-37
2023/07/30 09:38:34;;;;;;;;;13.00;13.00;;;;;24.41;56.05;100229.11;110261;1250;19670;-36
2023/07/30 09:41:02;;;;;;;;;16.00;15.00;;;;;24.46;56.10;100233.49;110284;1250;21425;-38
2023/07/30 09:43:29;;;;;;;;;14.00;12.00;;;;;24.49;55.77;100232.23;110269;1250;20029;-37
2023/07/30 09:45:56;;;;;;;;;15.00;13.50;;;;;24.52;55.32;100236.91;110219;1256;19751;-37
2023/07/30 09:48:24;;;;;;;;;16.00;15.00;;;;;24.54;55.42;100233.20;110280;1249;20031;-37
2023/07/30 09:50:51;;;;;;;;;16.00;16.00;;;;;24.58;55.21;100232.52;110275;1249;20191;-37
2023/07/30 09:53:18;;;;;;;;;14.50;13.00;;;;;24.59;55.26;100231.80;110235;1265;22126;-37
2023/07/30 09:55:46;;;;;;;;;16.00;15.00;;;;;24.58;55.54;100236.95;110195;1265;18462;-37
2023/07/30 09:58:13;;;;;;;;;18.00;16.00;;;;;24.62;55.49;100242.72;110187;1249;21242;-37
2023/07/30 10:00:40;;;;;;;;;14.00;13.00;;;;;24.60;55.54;100241.89;110179;1250;19575;-37
2023/07/30 10:03:08;;;;;;;;;17.00;17.00;;;;;24.57;55.80;100246.13;110190;1259;22329;-37
2023/07/30 10:05:36;;;;;;;;;16.00;16.00;;;;;24.56;55.86;100246.59;110180;1249;20261;-38
2023/07/30 10:08:03;;;;;;;;;16.00;15.50;;;;;24.57;55.97;100244.21;110209;1250;19595;-35
2023/07/30 10:10:30;;;;;;;;;17.00;15.00;;;;;24.51;56.12;100237.88;110249;1250;20037;-37
2023/07/30 10:12:58;;;;;;;;;17.00;16.00;;;;;24.53;56.32;100237.29;110200;1250;20894;-37
2023/07/30 10:15:25;;;;;;;;;16.00;16.00;;;;;24.60;56.23;100238.33;110202;1265;18119;-36
2023/07/30 10:17:52;;;;;;;;;25.00;21.00;;;;;24.63;56.49;100241.77;110152;1250;19999;-37
2023/07/30 10:20:19;;;;;;;;;16.50;15.50;;;;;24.63;56.36;100238.11;110197;1265;18662;-37
2023/07/30 10:22:47;;;;;;;;;18.00;18.00;;;;;24.69;56.09;100240.27;110195;1265;18121;-38
2023/07/30 10:25:14;;;;;;;;;17.00;16.00;;;;;24.70;55.61;100242.50;110197;1264;18541;-35
2023/07/30 10:27:43;;;;;;;;;17.00;16.67;;;;;24.66;55.82;100244.98;110207;1250;20046;-37
2023/07/30 10:30:10;;;;;;;;;17.00;16.00;;;;;24.66;55.69;100240.89;110202;1250;19593;-36
2023/07/30 10:32:37;;;;;;;;;16.00;16.00;;;;;24.69;55.40;100242.46;110210;1250;21423;-37
2023/07/30 10:35:05;;;;;;;;;16.50;15.50;;;;;24.73;55.70;100238.04;110255;1250;20081;-36
2023/07/30 10:37:32;;;;;;;;;16.50;16.00;;;;;24.72;55.21;100236.05;110174;1249;19581;-36
2023/07/30 10:39:59;;;;;;;;;15.50;15.50;;;;;24.73;55.19;100237.88;110217;1250;19986;-36
2023/07/30 10:42:27;;;;;;;;;15.67;15.00;;;;;24.66;55.14;100238.47;110166;1265;18625;-37
2023/07/30 10:44:54;;;;;;;;;18.00;16.00;;;;;24.61;55.17;100235.95;110167;1265;19280;-37
2023/07/30 10:47:21;;;;;;;;;15.00;13.50;;;;;24.61;55.00;100230.92;110226;1265;22597;-37
2023/07/30 10:49:50;;;;;;;;;15.00;15.00;;;;;24.62;54.73;100229.30;110183;1259;19979;-36
2023/07/30 10:52:17;;;;;;;;;17.00;16.00;;;;;24.65;54.42;100228.47;110200;1265;18218;-37
2023/07/30 10:54:45;;;;;;;;;15.33;15.33;;;;;24.67;53.98;100226.94;110183;1250;19994;-37
2023/07/30 10:57:12;;;;;;;;;15.00;14.50;;;;;24.69;53.54;100227.45;110178;1250;20067;-37
2023/07/30 10:59:39;;;;;;;;;16.00;15.00;;;;;24.76;53.56;100225.54;110186;1265;20026;-37
2023/07/30 11:02:08;;;;;;;;;13.00;12.00;;;;;24.79;53.40;100219.21;110193;1259;19951;-37
2023/07/30 11:04:36;;;;;;;;;18.50;17.00;;;;;24.83;53.52;100218.63;110195;1250;20082;-37
2023/07/30 11:07:03;;;;;;;;;19.50;17.50;;;;;24.84;53.44;100217.00;110192;1265;18085;-37